Observations for Trim Patrick St
| Time | AQI | Temp °C | Hum % | Pres Pa | CO μg/m³ | H₂S μg/m³ | NO μg/m³ | NO₂ μg/m³ | O₃ μg/m³ | SO₂ μg/m³ | PM1 μg/m³ | PM2.5 μg/m³ | PM10 μg/m³ |
|---|---|---|---|---|---|---|---|---|---|---|---|---|---|
| Friday 28 August 2026 | |||||||||||||
| 08:25 | 2 | 17.4 | 87 | 38,459 | 0.25 | 4.23 | 2.5 | 27.2 | 14.47 | 3.01 | 15.71 | 23.93 | 26.32 |
| 08:24 | 2 | 17.4 | 87 | 38,459 | 0.23 | 2.38 | 2.5 | 14.62 | 22.71 | 0.7 | 14.86 | 24.61 | 27.07 |
| 08:23 | 2 | 17.4 | 87 | 38,459 | 0.22 | 1.23 | 2.38 | 3.7 | 28.17 | 0.81 | 16.57 | 24.61 | 27.07 |
| 08:22 | 2 | 17.4 | 87 | 38,459 | 0.21 | 1.67 | 2.48 | 2.88 | 31.04 | 0.41 | 17.43 | 24.6 | 27.06 |
| 08:21 | 2 | 17.4 | 87 | 38,459 | 0.24 | 2.56 | 2.52 | 10.86 | 25.92 | 0.21 | 17.43 | 23.23 | 25.55 |
| 08:20 | 2 | 17.4 | 87 | 38,459 | 0.26 | 3.21 | 2.87 | 15.14 | 22.33 | 2.01 | 21.72 | 28.01 | 30.81 |
| 08:19 | 2 | 17.3 | 88 | 38,459 | 0.27 | 3.37 | 3.1 | 18.61 | 23.74 | 2.77 | 17.43 | 23.89 | 26.28 |
| 08:18 | 2 | 17.3 | 87 | 38,459 | 0.25 | 3.14 | 3.25 | 21.41 | 17.61 | 1.75 | 14.86 | 23.91 | 26.31 |
| 08:17 | 2 | 17.3 | 87 | 38,459 | 0.24 | 4.13 | 3.02 | 22.84 | 23.4 | 2.13 | 16.57 | 24.59 | 27.05 |
| 08:16 | 2 | 17.3 | 87 | 38,459 | 0.26 | 5.1 | 2.87 | 32.5 | 11.81 | 2.82 | 14.86 | 21.86 | 24.05 |
| 08:15 | 2 | 17.3 | 87 | 38,459 | 0.23 | 3.45 | 2.51 | 12.75 | 26.81 | 0.27 | 14.86 | 20.48 | 22.53 |
| 08:14 | 2 | 17.3 | 88 | 38,459 | 0.25 | 3.63 | 2.45 | 15.87 | 27.4 | 0.48 | 17.43 | 25.26 | 27.78 |
| 08:13 | 2 | 17.2 | 88 | 38,459 | 0.23 | 3.09 | 2.51 | 19.46 | 21.53 | 0.47 | 17.43 | 23.21 | 25.53 |
| 08:12 | 2 | 17.2 | 88 | 38,459 | 0.23 | 2.04 | 2.5 | 1.93 | 35.68 | 0.02 | 14.86 | 23.88 | 26.27 |
| 08:11 | 2 | 17.2 | 88 | 38,459 | 0.26 | 3.61 | 2.56 | 13.76 | 27.47 | 1.27 | 15.71 | 21.13 | 23.24 |
| 08:10 | 2 | 17.2 | 88 | 38,459 | 0.23 | 3.35 | 2.5 | 15.4 | 23.19 | 2.22 | 15.71 | 22.5 | 24.75 |
| 08:09 | 2 | 17.2 | 88 | 38,459 | 0.23 | 3.22 | 2.43 | 12.56 | 30.11 | 0.87 | 15.71 | 22.5 | 24.75 |
| 08:08 | 2 | 17.1 | 88 | 38,459 | 0.24 | 2.28 | 2.35 | 3.15 | 32.62 | 0 | 14.86 | 21.81 | 24 |
| 08:07 | 2 | 17.1 | 88 | 38,459 | 0.23 | 1.57 | 2.35 | 2.66 | 34.5 | 0 | 14.86 | 22.49 | 24.73 |
| 08:06 | 2 | 17.1 | 88 | 38,459 | 0.22 | 1.81 | 2.32 | 1.44 | 35.87 | 0.01 | 15.71 | 22.5 | 24.75 |